Time,TemperatureF,DewpointF,PressureIn,WindDirection,WindDirectionDegrees,WindSpeedMPH,WindSpeedGustMPH,Humidity,HourlyPrecipIn,Conditions,Clouds,dailyrainin,SolarRadiationWatts/m^2,SoftwareType,DateUTC
2013-02-18 00:02:00,13.0,-3.0,-100.00,NNW,331,14.0,31.0,47,0.00,,,0.00,0.000000,,2013-02-18 05:02:00,
2013-02-18 00:11:00,13.0,-3.0,-100.00,NNW,331,14.0,31.0,47,0.00,,,0.00,0.000000,,2013-02-18 05:11:00,
2013-02-18 00:42:00,12.0,-5.0,-100.00,NNW,336,13.0,26.0,45,0.00,,,0.00,0.000000,,2013-02-18 05:42:00,
2013-02-18 00:52:00,12.0,-5.0,-100.00,NNW,336,13.0,26.0,45,0.00,,,0.00,0.000000,,2013-02-18 05:52:00,
2013-02-18 01:02:00,12.0,-5.0,-100.00,NNW,336,13.0,26.0,45,0.00,,,0.00,0.000000,,2013-02-18 06:02:00,
2013-02-18 01:11:00,12.0,-5.0,-100.00,NNW,336,13.0,26.0,45,0.00,,,0.00,0.000000,,2013-02-18 06:11:00,
2013-02-18 01:42:00,12.0,-4.0,-100.00,NNW,332,14.0,29.0,47,0.00,,,0.00,0.000000,,2013-02-18 06:42:00,
2013-02-18 01:52:00,12.0,-4.0,-100.00,NNW,332,14.0,29.0,47,0.00,,,0.00,0.000000,,2013-02-18 06:52:00,
2013-02-18 02:02:00,12.0,-4.0,-100.00,NNW,332,14.0,29.0,47,0.00,,,0.00,0.000000,,2013-02-18 07:02:00,
2013-02-18 02:11:00,12.0,-4.0,-100.00,NNW,332,14.0,29.0,47,0.00,,,0.00,0.000000,,2013-02-18 07:11:00,
2013-02-18 02:42:00,11.0,-4.0,-100.00,NNW,329,15.0,29.0,49,0.00,,,0.00,0.000000,,2013-02-18 07:42:00,
2013-02-18 02:52:00,11.0,-4.0,-100.00,NNW,329,15.0,29.0,49,0.00,,,0.00,0.000000,,2013-02-18 07:52:00,
2013-02-18 03:02:00,11.0,-4.0,-100.00,NNW,329,15.0,29.0,49,0.00,,,0.00,0.000000,,2013-02-18 08:02:00,
2013-02-18 03:11:00,11.0,-4.0,-100.00,NNW,329,15.0,29.0,49,0.00,,,0.00,0.000000,,2013-02-18 08:11:00,
2013-02-18 03:42:00,10.0,-5.0,-100.00,NW,325,13.0,30.0,49,0.00,,,0.00,0.000000,,2013-02-18 08:42:00,
2013-02-18 03:52:00,10.0,-5.0,-100.00,NW,325,13.0,30.0,49,0.00,,,0.00,0.000000,,2013-02-18 08:52:00,
2013-02-18 04:03:00,10.0,-5.0,-100.00,NW,325,13.0,30.0,49,0.00,,,0.00,0.000000,,2013-02-18 09:03:00,
2013-02-18 04:11:00,10.0,-5.0,-100.00,NW,325,13.0,30.0,49,0.00,,,0.00,0.000000,,2013-02-18 09:11:00,
2013-02-18 04:42:00,9.0,-6.0,-100.00,NW,321,14.0,33.0,50,0.00,,,0.00,0.000000,,2013-02-18 09:42:00,
2013-02-18 04:52:00,9.0,-6.0,-100.00,NW,321,14.0,33.0,50,0.00,,,0.00,0.000000,,2013-02-18 09:52:00,
2013-02-18 05:01:00,9.0,-6.0,-100.00,NW,321,14.0,33.0,50,0.00,,,0.00,0.000000,,2013-02-18 10:01:00,
2013-02-18 05:11:00,9.0,-6.0,-100.00,NW,321,14.0,33.0,50,0.00,,,0.00,0.000000,,2013-02-18 10:11:00,
2013-02-18 05:42:00,9.0,-6.0,-100.00,NW,323,18.0,32.0,49,0.00,,,0.00,0.000000,,2013-02-18 10:42:00,
2013-02-18 05:53:00,9.0,-6.0,-100.00,NW,323,18.0,32.0,49,0.00,,,0.00,0.000000,,2013-02-18 10:53:00,
2013-02-18 06:02:00,9.0,-6.0,-100.00,NW,323,18.0,32.0,49,0.00,,,0.00,0.000000,,2013-02-18 11:02:00,
2013-02-18 06:12:00,9.0,-6.0,-100.00,NW,323,18.0,32.0,49,0.00,,,0.00,0.000000,,2013-02-18 11:12:00,
2013-02-18 06:43:00,9.0,-6.0,-100.00,NW,321,12.0,24.0,49,0.00,,,0.00,0.000000,,2013-02-18 11:43:00,
2013-02-18 06:53:00,9.0,-6.0,-100.00,NW,321,12.0,24.0,49,0.00,,,0.00,0.000000,,2013-02-18 11:53:00,
2013-02-18 07:02:00,9.0,-6.0,-100.00,NW,321,12.0,24.0,49,0.00,,,0.00,0.000000,,2013-02-18 12:02:00,
2013-02-18 07:12:00,9.0,-6.0,-100.00,NW,321,12.0,24.0,49,0.00,,,0.00,0.000000,,2013-02-18 12:12:00,
2013-02-18 07:42:00,9.0,-6.0,-100.00,NW,318,9.0,30.0,50,0.00,,,0.00,7.000000,,2013-02-18 12:42:00,
2013-02-18 07:54:00,9.0,-6.0,-100.00,NW,318,9.0,30.0,50,0.00,,,0.00,7.000000,,2013-02-18 12:54:00,
2013-02-18 08:03:00,9.0,-6.0,-100.00,NW,318,9.0,30.0,50,0.00,,,0.00,7.000000,,2013-02-18 13:03:00,
2013-02-18 08:12:00,9.0,-6.0,-100.00,NW,318,9.0,30.0,50,0.00,,,0.00,7.000000,,2013-02-18 13:12:00,
2013-02-18 08:42:00,11.0,-7.0,-100.00,NNW,331,13.0,24.0,44,0.00,,,0.00,110.000000,,2013-02-18 13:42:00,
2013-02-18 08:53:00,11.0,-7.0,-100.00,NNW,331,13.0,24.0,44,0.00,,,0.00,110.000000,,2013-02-18 13:53:00,
2013-02-18 09:02:00,11.0,-7.0,-100.00,NNW,331,13.0,24.0,44,0.00,,,0.00,110.000000,,2013-02-18 14:02:00,
2013-02-18 09:12:00,11.0,-7.0,-100.00,NNW,331,13.0,24.0,44,0.00,,,0.00,110.000000,,2013-02-18 14:12:00,
2013-02-18 09:42:00,15.0,-3.0,-100.00,NNW,331,11.0,25.0,44,0.00,,,0.00,189.000000,,2013-02-18 14:42:00,
2013-02-18 09:54:00,15.0,-3.0,-100.00,NNW,331,11.0,25.0,44,0.00,,,0.00,189.000000,,2013-02-18 14:54:00,
2013-02-18 10:02:00,15.0,-3.0,-100.00,NNW,331,11.0,25.0,44,0.00,,,0.00,189.000000,,2013-02-18 15:02:00,
2013-02-18 10:12:00,15.0,-3.0,-100.00,NNW,331,11.0,25.0,44,0.00,,,0.00,189.000000,,2013-02-18 15:12:00,
2013-02-18 10:42:00,17.0,-3.0,-100.00,NNW,333,14.0,28.0,40,0.00,,,0.00,243.000000,,2013-02-18 15:42:00,
2013-02-18 10:53:00,17.0,-3.0,-100.00,NNW,333,14.0,28.0,40,0.00,,,0.00,243.000000,,2013-02-18 15:53:00,
2013-02-18 11:03:00,17.0,-3.0,-100.00,NNW,333,14.0,28.0,40,0.00,,,0.00,243.000000,,2013-02-18 16:03:00,
2013-02-18 11:12:00,17.0,-3.0,-100.00,NNW,333,14.0,28.0,40,0.00,,,0.00,243.000000,,2013-02-18 16:12:00,
2013-02-18 11:43:00,19.0,-4.0,-100.00,NW,321,12.0,28.0,35,0.00,,,0.00,282.000000,,2013-02-18 16:43:00,
2013-02-18 11:53:00,19.0,-4.0,-100.00,NW,321,12.0,28.0,35,0.00,,,0.00,282.000000,,2013-02-18 16:53:00,
2013-02-18 12:04:00,19.0,-4.0,-100.00,NW,321,12.0,28.0,35,0.00,,,0.00,282.000000,,2013-02-18 17:04:00,
2013-02-18 12:12:00,19.0,-4.0,-100.00,NW,321,12.0,28.0,35,0.00,,,0.00,282.000000,,2013-02-18 17:12:00,
2013-02-18 12:43:00,22.0,-3.0,-100.00,NW,318,10.0,26.0,33,0.00,,,0.00,298.000000,,2013-02-18 17:43:00,
2013-02-18 12:53:00,22.0,-3.0,-100.00,NW,318,10.0,26.0,33,0.00,,,0.00,298.000000,,2013-02-18 17:53:00,
2013-02-18 13:03:00,22.0,-3.0,-100.00,NW,318,10.0,26.0,33,0.00,,,0.00,298.000000,,2013-02-18 18:03:00,
2013-02-18 13:12:00,22.0,-3.0,-100.00,NW,318,10.0,26.0,33,0.00,,,0.00,298.000000,,2013-02-18 18:12:00,
2013-02-18 13:43:00,24.0,-3.0,-100.00,NW,311,9.0,23.0,30,0.00,,,0.00,297.000000,,2013-02-18 18:43:00,
2013-02-18 13:53:00,24.0,-3.0,-100.00,NW,311,9.0,23.0,30,0.00,,,0.00,297.000000,,2013-02-18 18:53:00,
2013-02-18 14:03:00,24.0,-3.0,-100.00,NW,311,9.0,23.0,30,0.00,,,0.00,297.000000,,2013-02-18 19:03:00,
2013-02-18 14:13:00,24.0,-3.0,-100.00,NW,311,9.0,23.0,30,0.00,,,0.00,297.000000,,2013-02-18 19:13:00,
2013-02-18 14:43:00,26.0,-3.0,-100.00,NW,321,10.0,22.0,28,0.00,,,0.00,283.000000,,2013-02-18 19:43:00,
2013-02-18 14:53:00,26.0,-3.0,-100.00,NW,321,10.0,22.0,28,0.00,,,0.00,283.000000,,2013-02-18 19:53:00,
2013-02-18 15:03:00,26.0,-3.0,-100.00,NW,321,10.0,22.0,28,0.00,,,0.00,283.000000,,2013-02-18 20:03:00,
2013-02-18 15:13:00,26.0,-3.0,-100.00,NW,321,10.0,22.0,28,0.00,,,0.00,283.000000,,2013-02-18 20:13:00,
2013-02-18 15:43:00,27.0,-2.0,-100.00,NW,305,10.0,22.0,27,0.00,,,0.00,248.000000,,2013-02-18 20:43:00,
2013-02-18 15:53:00,27.0,-2.0,-100.00,NW,305,10.0,22.0,27,0.00,,,0.00,248.000000,,2013-02-18 20:53:00,
2013-02-18 16:03:00,27.0,-2.0,-100.00,NW,305,10.0,22.0,27,0.00,,,0.00,248.000000,,2013-02-18 21:03:00,
2013-02-18 16:12:00,27.0,-2.0,-100.00,NW,305,10.0,22.0,27,0.00,,,0.00,248.000000,,2013-02-18 21:12:00,
2013-02-18 16:43:00,27.0,0.0,-100.00,NW,310,8.0,21.0,31,0.00,,,0.00,187.000000,,2013-02-18 21:43:00,
2013-02-18 17:03:00,27.0,0.0,-100.00,NW,310,8.0,21.0,31,0.00,,,0.00,187.000000,,2013-02-18 22:03:00,
2013-02-18 17:13:00,27.0,0.0,-100.00,NW,310,8.0,21.0,31,0.00,,,0.00,187.000000,,2013-02-18 22:13:00,
2013-02-18 17:44:00,25.0,1.0,-100.00,NW,317,6.0,20.0,35,0.00,,,0.00,97.000000,,2013-02-18 22:44:00,
2013-02-18 17:54:00,25.0,1.0,-100.00,NW,317,6.0,20.0,35,0.00,,,0.00,97.000000,,2013-02-18 22:54:00,
2013-02-18 18:03:00,25.0,1.0,-100.00,NW,317,6.0,20.0,35,0.00,,,0.00,97.000000,,2013-02-18 23:03:00,
2013-02-18 18:12:00,25.0,1.0,-100.00,NW,317,6.0,20.0,35,0.00,,,0.00,97.000000,,2013-02-18 23:12:00,
2013-02-18 18:43:00,24.0,1.0,-100.00,NW,325,6.0,13.0,36,0.00,,,0.00,2.000000,,2013-02-18 23:43:00,
2013-02-18 18:54:00,24.0,1.0,-100.00,NW,325,6.0,13.0,36,0.00,,,0.00,2.000000,,2013-02-18 23:54:00,
2013-02-18 19:03:00,24.0,1.0,-100.00,NW,325,6.0,13.0,36,0.00,,,0.00,2.000000,,2013-02-19 00:03:00,
2013-02-18 19:12:00,24.0,1.0,-100.00,NW,325,6.0,13.0,36,0.00,,,0.00,2.000000,,2013-02-19 00:12:00,
2013-02-18 19:44:00,23.0,3.0,-100.00,NW,317,4.0,11.0,41,0.00,,,0.00,0.000000,,2013-02-19 00:44:00,
2013-02-18 19:55:00,23.0,3.0,-100.00,NW,317,4.0,11.0,41,0.00,,,0.00,0.000000,,2013-02-19 00:55:00,
2013-02-18 20:03:00,23.0,3.0,-100.00,NW,317,4.0,11.0,41,0.00,,,0.00,0.000000,,2013-02-19 01:03:00,
2013-02-18 20:14:00,23.0,3.0,-100.00,NW,317,4.0,11.0,41,0.00,,,0.00,0.000000,,2013-02-19 01:14:00,
2013-02-18 20:45:00,20.0,4.0,-100.00,NW,316,3.0,8.0,48,0.00,,,-99.99,0.000000,,2013-02-19 01:45:00,
2013-02-18 20:57:00,20.0,4.0,-100.00,NW,316,3.0,8.0,48,0.00,,,-99.99,0.000000,,2013-02-19 01:57:00,
2013-02-18 21:04:00,20.0,4.0,-100.00,NW,316,3.0,8.0,48,0.00,,,-99.99,0.000000,,2013-02-19 02:04:00,
2013-02-18 21:14:00,20.0,4.0,-100.00,NW,316,3.0,8.0,48,0.00,,,-99.99,0.000000,,2013-02-19 02:14:00,
2013-02-18 21:15:00,17.0,5.0,-100.00,ENE,74,0.0,2.0,58,0.00,,,0.00,0.000000,,2013-02-19 02:15:00,
2013-02-18 21:44:00,17.0,5.0,-100.00,ENE,74,0.0,2.0,58,0.00,,,0.00,0.000000,,2013-02-19 02:44:00,
2013-02-18 21:56:00,17.0,5.0,-100.00,ENE,74,0.0,2.0,58,0.00,,,0.00,0.000000,,2013-02-19 02:56:00,
2013-02-18 22:07:00,17.0,5.0,-100.00,ENE,74,0.0,2.0,58,0.00,,,0.00,0.000000,,2013-02-19 03:07:00,
2013-02-18 22:45:00,15.0,4.0,-100.00,SSE,154,0.0,2.0,62,0.00,,,0.00,0.000000,,2013-02-19 03:45:00,
2013-02-18 22:55:00,15.0,4.0,-100.00,SSE,154,0.0,2.0,62,0.00,,,0.00,0.000000,,2013-02-19 03:55:00,
2013-02-18 23:03:00,15.0,4.0,-100.00,SSE,154,0.0,2.0,62,0.00,,,0.00,0.000000,,2013-02-19 04:03:00,
2013-02-18 23:14:00,15.0,4.0,-100.00,SSE,154,0.0,2.0,62,0.00,,,0.00,0.000000,,2013-02-19 04:14:00,
2013-02-18 23:34:00,16.0,6.0,-100.00,SW,225,2.0,3.0,64,0.00,,,0.00,0.000000,,2013-02-19 04:34:00,
2013-02-18 23:45:00,16.0,6.0,-100.00,SW,225,2.0,3.0,64,0.00,,,0.00,0.000000,,2013-02-19 04:45:00,
2013-02-18 23:56:00,16.0,6.0,-100.00,SW,225,2.0,3.0,64,0.00,,,0.00,0.000000,,2013-02-19 04:56:00,